ADDS TAF Data INFO
IDs: Format: Raw Decoded Include METARs

Data at: 0346 UTC 20 Nov 2017

KFHU 200258Z AUTO 00000KT 10SM CLR 13/M07 A3013 RMK AO2 SLP170 T01271067 52019

TAF KFHU 200202Z 2002/2108 VRB06KT 9999 SKC QNH3005INS
  BECMG 2018/2019 29009KT 9999 SKC QNH3006INS TX20/2020Z TN06/2014Z